Date,TemperatureHighF,TemperatureAvgF,TemperatureLowF,DewpointHighF,DewpointAvgF,DewpointLowF,HumidityHigh,HumidityAvg,HumidityLow,PressureMaxIn,PressureMinIn,WindSpeedMaxMPH,WindSpeedAvgMPH,GustSpeedMaxMPH,PrecipitationSumIn
2012-1-1,58,43,26,46,34,22,98,75,41,30.13,29.79,14,2,16,0.01
2012-1-2,45,36,27,26,18,11,69,48,39,30.00,29.89,14,2,17,0.00
2012-1-3,31,26,17,15,9,3,66,50,33,30.30,29.98,11,2,12,0.00
2012-1-4,38,25,12,18,12,7,88,60,35,30.33,29.98,7,1,0,0.00
2012-1-5,52,40,28,28,24,15,78,56,34,30.06,29.95,9,1,0,0.00
2012-1-6,68,43,28,34,28,24,90,64,24,29.98,29.85,11,1,13,0.00
2012-1-7,66,48,29,47,37,26,90,67,48,30.06,29.83,14,2,16,0.00
2012-1-8,57,40,28,34,28,25,95,67,32,30.32,30.06,6,1,0,0.00
2012-1-9,37,32,26,32,26,24,95,77,61,30.34,30.12,2,0,0,0.06
2012-1-10,55,38,29,32,30,28,98,78,42,30.09,30.00,2,1,0,0.00
2012-1-11,42,38,26,42,36,25,99,96,86,30.01,29.50,17,0,19,1.61
2012-1-12,60,48,34,51,44,33,100,87,68,29.54,29.34,15,2,20,0.09
2012-1-13,47,34,27,43,21,15,85,59,45,29.99,29.36,18,3,27,0.00
2012-1-14,39,32,24,23,19,14,90,60,42,30.15,29.98,9,1,13,0.00
2012-1-15,39,28,19,22,19,17,92,72,44,30.59,30.14,6,0,0,0.00
2012-1-16,45,31,14,33,23,12,94,74,50,30.59,30.19,14,4,17,0.00
2012-1-17,47,44,41,35,34,32,73,68,62,30.20,30.02,10,3,0,0.00
2012-1-18,39,38,37,26,24,22,62,55,52,30.03,29.97,10,2,14,0.00
2012-1-19,41,32,15,25,19,13,93,61,40,30.23,29.97,10,3,14,0.00
2012-1-20,40,33,27,28,25,23,93,74,58,30.24,29.98,7,1,0,0.00
2012-1-21,38,32,29,37,31,27,98,96,92,30.27,29.90,7,0,0,0.18
2012-1-22,35,32,30,32,30,27,98,92,84,30.45,30.27,4,0,0,0.05
2012-1-23,44,37,33,44,36,32,100,97,92,30.34,29.92,10,1,15,0.24
2012-1-24,63,48,36,48,38,31,100,72,36,30.20,29.94,6,1,0,0.00
2012-1-25,54,40,26,39,33,25,96,78,48,30.35,30.18,8,1,13,0.00
2012-1-26,61,50,34,56,45,33,98,84,58,30.19,29.67,8,1,0,0.00
2012-1-27,64,56,42,60,45,29,98,68,46,29.99,29.46,15,4,22,0.87
2012-1-28,59,43,27,38,29,13,96,59,32,30.21,29.93,12,2,15,0.00
2012-1-29,49,39,25,24,16,8,80,42,20,30.31,30.10,12,2,17,0.00
2012-1-30,53,39,25,27,21,10,83,50,26,30.39,30.18,10,1,14,0.00
2012-1-31,68,49,34,33,27,24,75,47,21,30.25,30.17,9,1,0,0.00
2012-2-1,70,59,49,52,42,31,91,54,41,30.09,29.98,11,2,15,0.01
2012-2-2,62,53,50,53,50,43,99,91,53,30.03,29.92,7,1,0,0.37
2012-2-3,57,47,28,34,30,26,95,55,34,30.50,30.36,7,1,0,0.00
2012-2-4,43,37,27,36,32,26,95,84,65,30.34,30.09,3,0,0,0.00
2012-2-5,43,36,26,37,33,25,97,90,74,30.26,30.05,5,0,0,0.02
2012-2-6,52,36,20,36,29,19,97,78,49,30.29,30.09,11,2,0,0.00
2012-2-7,61,45,30,35,28,23,87,55,25,30.20,30.07,5,1,0,0.00
2012-2-8,42,37,30,36,31,26,97,81,64,30.25,30.10,3,0,0,0.04
2012-2-9,51,41,31,28,24,17,83,54,26,30.27,30.15,9,1,0,0.00
2012-2-10,49,36,23,36,28,21,94,75,47,30.18,29.89,7,0,0,0.01
2012-2-11,44,33,21,37,23,4,98,69,38,29.99,29.69,17,2,25,0.02
2012-2-12,36,27,19,12,6,-1,53,41,28,30.17,29.98,20,2,21,0.00
2012-2-13,51,37,28,24,16,10,78,44,24,30.22,30.08,11,1,14,0.00
2012-2-14,53,42,31,40,30,23,91,65,41,30.08,29.92,11,2,13,0.00
2012-2-15,60,47,33,40,32,27,92,61,29,30.28,30.01,7,1,0,0.00
2012-2-16,47,43,39,44,40,33,98,89,72,30.28,30.00,9,1,13,0.36
2012-2-17,59,44,31,41,34,26,99,71,33,30.12,30.00,6,1,0,0.00
2012-2-18,61,44,27,36,30,25,96,64,31,30.12,29.91,11,2,13,0.00
2012-2-19,47,38,32,32,28,23,97,68,53,30.08,29.87,9,1,0,0.00
2012-2-20,48,38,25,30,26,20,95,65,33,30.35,30.11,5,1,0,0.36
2012-2-21,50,34,19,34,28,18,96,79,51,30.35,29.89,19,3,22,0.00
2012-2-22,63,44,30,43,34,28,96,74,33,29.89,29.60,21,3,21,0.00
2012-2-23,70,57,39,51,46,38,97,69,42,29.62,29.50,11,1,12,0.00
2012-2-24,76,52,41,61,44,24,98,75,41,29.77,29.32,18,2,23,0.13
2012-2-25,46,38,32,29,19,11,72,46,29,30.32,29.75,17,3,20,0.00
2012-2-26,51,37,25,24,18,14,85,48,26,30.48,30.31,12,2,15,0.00
2012-2-27,64,43,22,40,29,20,93,64,29,30.41,30.19,11,2,14,0.00
2012-2-28,66,50,34,37,26,17,91,45,18,30.42,30.27,10,1,0,0.00
2012-2-29,60,46,30,57,44,27,99,91,80,30.28,29.68,13,2,14,1.20
2012-3-1,72,62,46,43,35,29,74,40,23,29.93,29.65,13,2,15,0.00
2012-3-2,51,43,32,44,39,30,98,86,63,30.03,29.68,7,1,12,0.54
2012-3-3,62,50,40,50,36,16,100,67,21,29.75,29.55,11,1,14,0.11
2012-3-4,50,43,31,35,23,16,75,47,32,29.94,29.66,11,2,13,0.00
2012-3-5,42,33,26,33,25,19,96,73,40,30.49,29.91,13,0,13,0.27
2012-3-6,53,37,19,27,22,17,94,61,28,30.68,30.48,11,2,12,0.01
2012-3-7,59,42,30,36,27,23,83,56,42,30.57,30.52,8,2,0,0.00
2012-3-8,71,64,54,54,51,49,82,63,50,30.30,29.99,26,9,26,0.00
2012-3-9,63,56,50,54,36,20,74,49,22,30.17,29.98,14,3,19,0.00
2012-3-11,65,60,50,32,31,28,47,34,26,30.47,30.37,11,4,15,0.00
2012-3-12,74,54,33,53,42,30,90,65,35,30.39,30.13,16,4,16,0.00
2012-3-13,81,65,51,62,53,48,96,68,35,30.13,29.97,13,3,13,0.05
2012-3-14,86,61,40,58,44,35,99,64,19,30.19,30.08,7,1,0,0.00
2012-3-15,83,60,42,53,46,40,94,65,26,30.21,30.09,8,1,0,0.00
2012-3-16,78,62,48,57,52,46,94,72,42,30.18,30.07,7,0,0,0.00
2012-3-17,79,66,45,58,53,44,98,66,44,30.27,30.15,7,1,0,0.00
2012-3-18,73,60,48,59,54,46,96,79,58,30.32,30.16,7,1,0,0.00
2012-3-19,84,66,53,60,55,52,97,73,39,30.18,30.05,7,0,0,0.00
2012-3-20,81,63,48,64,57,47,99,84,55,30.22,30.11,6,0,0,0.08
2012-3-21,75,64,54,64,60,54,100,88,60,30.29,30.16,4,0,0,0.01
2012-3-22,83,68,54,66,60,54,100,79,51,30.25,30.03,9,1,13,0.00
2012-3-23,89,72,50,64,59,49,99,68,39,30.07,29.88,8,1,0,0.00
2012-3-24,75,63,55,63,59,54,99,87,53,29.90,29.76,7,0,0,1.86
2012-3-25,65,58,54,57,55,53,99,92,75,29.80,29.72,7,1,0,0.31
2012-3-26,66,57,46,56,41,19,93,59,25,30.17,29.79,8,2,12,0.00
2012-3-27,65,48,30,36,23,16,81,40,18,30.34,30.17,7,1,0,0.00
2012-3-28,88,62,44,58,43,26,96,52,25,30.18,29.66,15,3,17,0.06
2012-3-29,77,67,50,51,40,33,72,39,23,29.98,29.72,13,1,14,0.00
2012-3-30,71,54,36,48,41,35,96,66,37,30.09,29.83,9,1,0,0.00
2012-3-31,80,61,50,57,49,44,90,68,31,29.85,29.64,8,1,0,0.00
2012-4-1,72,59,49,52,48,46,91,69,45,29.89,29.53,10,2,14,0.00
2012-4-2,71,62,42,56,42,32,84,50,26,29.94,29.52,10,2,14,0.00
2012-4-3,82,59,31,52,42,30,97,59,28,30.04,29.76,7,0,0,0.00
2012-4-4,87,68,51,61,54,49,91,64,31,29.78,29.52,11,1,14,0.00
2012-4-5,67,54,40,51,37,30,92,54,36,29.87,29.65,6,1,0,0.00
2012-4-6,64,49,32,38,30,20,98,55,20,30.10,29.87,7,1,0,0.00
2012-4-7,70,53,32,37,25,14,79,38,18,30.25,30.05,6,1,0,0.00
2012-4-8,78,55,32,40,32,24,90,50,20,30.13,29.83,12,1,18,0.00
2012-4-9,72,60,40,39,29,20,67,33,20,29.98,29.72,15,2,19,0.00
2012-4-10,72,56,35,38,25,8,92,40,9,29.85,29.67,19,2,24,0.00
2012-4-11,54,46,42,29,26,22,56,45,34,30.11,29.85,11,1,13,0.00
2012-4-12,64,47,30,36,30,27,90,56,26,30.20,30.09,6,1,0,0.00
2012-4-13,72,51,35,39,33,27,92,58,20,30.27,30.18,6,0,0,0.00
2012-4-14,77,58,33,46,39,31,95,57,27,30.27,30.05,9,2,0,0.00
2012-4-15,85,72,56,60,51,45,71,49,33,30.10,29.97,12,3,15,0.00
2012-4-16,86,74,62,64,60,57,87,65,42,30.04,29.91,11,3,15,0.00
2012-4-17,73,67,55,60,50,43,93,56,35,30.19,29.99,5,1,0,0.00
2012-4-18,60,52,48,51,49,44,98,90,61,30.27,30.13,2,0,0,0.74
2012-4-19,68,56,48,56,51,47,99,86,59,30.13,30.01,5,0,0,0.00
2012-4-20,76,58,42,57,50,42,99,80,48,30.03,29.80,6,1,0,0.00
2012-4-21,80,62,49,62,56,48,98,82,39,29.81,29.61,10,1,0,0.37
2012-4-22,52,49,46,51,48,44,98,94,90,29.72,29.47,10,2,0,0.38
2012-4-23,47,44,40,44,40,35,95,86,69,29.59,29.38,8,1,0,0.11
2012-4-24,65,48,32,39,32,20,99,63,20,29.76,29.56,7,1,14,0.00
2012-4-25,40,34,31,38,33,30,98,95,89,29.87,29.76,1,0,0,0.00
2012-4-26,72,66,57,64,60,53,99,81,59,29.73,29.60,7,1,0,0.66
2012-4-27,73,61,45,56,41,26,86,52,19,30.15,29.72,6,1,0,0.00
2012-4-28,54,47,41,46,42,35,95,85,55,30.32,30.10,8,0,0,0.11
2012-4-29,75,56,45,58,50,44,98,82,54,30.26,30.09,5,0,0,0.17
2012-4-30,58,55,52,57,52,42,99,90,69,30.28,30.09,3,0,0,0.01
2012-5-1,85,69,56,69,62,56,100,81,49,30.09,29.94,8,1,0,0.18
2012-5-2,92,74,60,72,65,59,97,76,45,30.06,29.94,4,0,0,0.00
2012-5-3,90,75,66,74,68,64,99,81,52,30.12,29.97,3,0,0,0.00
2012-5-4,83,71,61,72,66,60,99,86,53,30.02,29.86,4,0,0,0.00
2012-5-5,73,66,58,70,65,58,100,96,86,29.94,29.83,3,0,0,0.14
2012-5-6,73,66,62,66,64,62,99,92,77,30.06,29.93,5,0,0,0.00
2012-5-7,69,64,61,64,61,56,97,89,80,30.08,29.96,0,0,0,0.00
2012-5-8,68,64,61,67,62,56,99,93,82,30.00,29.79,0,0,0,0.62
2012-5-9,73,66,63,66,63,58,100,90,67,29.80,29.68,3,0,0,0.06
2012-5-10,71,62,48,50,44,38,94,55,33,29.97,29.70,7,1,13,0.00
2012-5-11,80,62,42,50,42,35,97,55,23,30.20,29.97,8,1,0,0.00
2012-5-12,82,60,40,57,49,39,98,71,34,30.32,30.18,4,0,0,0.00
2012-5-13,78,64,51,61,56,50,97,78,50,30.22,30.08,6,1,0,0.05
2012-5-14,65,62,60,64,62,60,100,98,96,30.11,29.95,4,0,0,1.52
2012-5-15,85,70,63,72,66,62,100,89,57,29.96,29.87,3,0,0,1.02
2012-5-16,89,69,58,67,61,55,100,79,34,29.95,29.83,4,0,0,0.00
2012-5-17,80,66,56,62,58,55,99,76,48,30.10,29.91,7,1,0,0.00
2012-5-18,80,62,48,56,51,46,98,73,33,30.17,30.08,5,0,0,0.00
2012-5-19,86,63,46,61,52,45,98,73,32,30.18,30.08,5,0,0,0.00
2012-5-20,86,65,49,62,56,48,98,75,36,30.16,30.04,6,0,0,0.00
2012-5-21,80,68,62,69,64,58,98,86,64,30.04,29.86,5,0,0,0.06
2012-5-22,92,70,62,70,65,62,100,86,43,29.88,29.75,3,0,0,0.04
2012-5-23,85,70,63,71,66,63,99,88,53,29.93,29.82,4,0,0,0.19
2012-5-24,82,69,62,72,66,61,99,90,68,30.06,29.93,0,0,0,0.00
2012-5-25,95,73,62,76,68,62,100,86,42,30.11,30.05,0,0,0,0.00
2012-5-26,94,76,63,77,70,62,100,83,54,30.14,30.04,0,0,0,0.00
2012-5-27,94,76,64,73,69,63,99,81,46,30.12,30.00,0,0,0,0.00
2012-5-28,92,77,64,76,70,63,99,82,55,30.11,29.91,0,0,0,0.00
2012-5-29,88,76,67,74,69,64,99,83,56,29.92,29.71,6,1,0,0.58
2012-5-30,90,73,63,71,66,58,100,82,40,29.81,29.69,4,0,0,0.01
2012-5-31,94,77,58,67,62,56,100,65,33,29.87,29.78,4,0,0,0.00
2012-6-1,78,67,61,74,65,56,100,94,72,29.88,29.61,5,0,0,0.95
2012-6-2,74,64,52,59,52,45,95,69,40,29.86,29.73,6,1,0,0.00
2012-6-3,81,62,49,66,54,48,98,77,39,29.89,29.73,5,0,0,0.00
2012-6-4,80,64,53,62,55,49,98,77,35,29.78,29.63,6,0,0,0.00
2012-6-5,72,59,49,59,56,48,99,88,58,29.95,29.75,6,0,0,0.11
2012-6-6,74,63,56,61,58,54,99,85,53,30.02,29.94,2,0,0,0.05
2012-6-7,86,65,51,65,57,50,100,78,36,30.03,29.94,6,0,0,0.07
2012-6-8,90,67,50,64,56,49,100,74,28,30.04,29.92,5,0,0,0.00
2012-6-9,94,70,52,66,59,51,98,73,30,30.03,29.93,4,0,0,0.00
2012-6-10,96,72,55,73,64,53,98,77,39,30.10,30.01,3,0,0,0.00
2012-6-11,78,67,58,73,65,57,99,95,83,30.12,30.02,2,0,0,0.62
2012-6-12,90,72,67,79,71,67,100,96,69,29.92,29.80,6,0,0,2.18
2012-6-13,81,70,56,67,60,46,100,75,36,30.05,29.84,6,1,0,0.00
2012-6-14,83,65,50,67,59,49,100,81,52,30.18,30.05,6,0,0,0.00
2012-6-15,86,70,60,64,61,58,99,76,42,30.26,30.18,6,0,0,0.00
2012-6-16,84,66,51,64,58,50,98,78,43,30.31,30.16,3,0,0,0.00
2012-6-17,86,68,52,65,59,51,99,77,40,30.19,30.00,4,0,0,0.00
2012-6-18,73,67,62,72,64,60,97,92,82,30.07,29.99,2,0,0,0.28
2012-6-19,94,76,66,78,71,66,99,86,54,30.12,30.07,3,0,0,0.01
2012-6-20,102,79,64,79,71,63,100,80,41,30.14,30.00,2,0,0,0.00
2012-6-21,101,80,67,82,72,66,99,80,41,30.01,29.84,8,0,0,0.00
2012-6-22,94,77,68,77,71,66,98,82,49,29.88,29.74,4,0,0,0.00
2012-6-23,96,76,63,71,65,54,99,74,33,30.01,29.86,4,0,0,0.00
2012-6-24,91,74,63,78,69,62,99,86,56,30.01,29.87,5,0,0,0.57
2012-6-25,88,75,64,73,64,51,100,73,40,29.87,29.67,6,1,0,0.00
2012-6-26,80,68,57,58,51,46,90,56,37,29.92,29.81,7,1,12,0.00
2012-6-27,92,69,50,66,56,48,98,70,31,29.98,29.86,7,0,0,0.00
2012-6-28,100,74,55,73,64,54,98,75,31,29.96,29.75,3,0,0,0.00
2012-6-29,107,85,71,83,73,60,88,70,40,29.89,29.65,17,1,29,0.00
2012-6-30,77,71,66,65,64,62,91,79,60,29.78,29.68,2,0,0,0.00
2012-7-1,96,84,73,78,74,70,95,76,48,29.91,29.76,3,0,0,0.00
2012-7-2,101,81,69,75,68,63,96,69,35,29.96,29.85,12,1,15,0.00
2012-7-3,102,77,64,76,70,63,98,82,41,29.96,29.86,8,0,0,0.27
2012-7-4,101,80,69,80,72,69,99,81,46,29.93,29.82,4,0,0,0.00
2012-7-5,80,78,76,76,75,73,93,90,88,29.85,29.83,2,0,0,0.00
2012-7-6,102,83,70,80,74,68,97,78,43,29.93,29.84,3,0,0,0.00
2012-7-7,106,85,72,82,76,71,98,78,41,29.93,29.81,3,0,0,0.00
2012-7-8,107,83,72,79,74,70,97,79,37,29.86,29.74,7,0,0,0.11
2012-7-9,86,77,73,77,74,71,99,89,69,29.95,29.84,5,0,0,0.51
2012-7-10,90,75,68,76,70,67,100,88,54,30.03,29.92,2,0,0,0.01
2012-7-11,88,74,64,72,68,64,99,83,51,30.13,30.02,4,0,0,0.00
2012-7-12,89,74,65,70,66,59,98,80,40,30.18,30.11,3,0,0,0.00
2012-7-13,82,73,66,69,66,60,96,82,49,30.20,30.14,2,0,0,0.00
2012-7-14,89,74,66,77,71,66,99,89,65,30.18,30.06,10,0,13,1.13
2012-7-15,95,77,70,80,73,69,100,90,56,30.14,29.99,6,0,0,0.01
2012-7-16,98,80,69,80,72,68,99,81,45,30.02,29.84,4,0,0,0.00
2012-7-17,102,81,66,78,71,64,99,77,34,29.93,29.80,3,0,0,0.00
2012-7-18,99,78,68,79,73,67,98,85,46,29.92,29.82,7,0,0,0.02
2012-7-19,96,79,68,77,72,67,99,82,47,29.94,29.82,4,0,0,0.17
2012-7-20,78,73,70,76,73,70,100,98,91,29.92,29.82,2,0,0,0.08
2012-7-21,74,71,67,73,69,67,100,95,85,30.10,29.90,3,0,0,0.08
2012-7-22,88,74,67,77,71,67,100,90,66,30.16,30.08,4,0,0,0.00
2012-7-23,97,76,68,79,72,68,100,89,51,30.11,29.93,4,0,0,0.02
2012-7-24,96,77,69,79,72,68,99,87,52,29.93,29.75,9,1,0,0.58
2012-7-25,91,75,65,72,68,65,100,84,50,29.96,29.81,4,0,0,0.00
2012-7-26,98,88,71,80,70,-100,100,68,48,29.87,29.66,5,1,0,0.00
2012-7-27,93,77,67,76,70,65,97,82,52,29.89,29.73,11,0,0,0.02
2012-7-28,95,76,64,74,67,62,100,77,42,29.94,29.84,6,0,0,0.00
2012-7-29,95,78,67,71,67,63,93,71,43,30.00,29.90,7,1,0,0.00
2012-7-30,89,75,65,75,69,64,98,82,57,30.03,29.92,5,0,0,0.00
2012-7-31,90,75,66,76,70,65,98,85,54,30.01,29.83,5,0,0,0.25
2012-8-1,93,74,64,78,70,64,100,89,47,29.93,29.78,4,0,0,0.06
2012-8-2,97,78,66,78,71,66,100,82,48,29.90,29.82,3,0,0,0.00
2012-8-3,93,78,68,79,72,67,99,84,59,30.04,29.89,4,0,0,0.00
2012-8-4,91,78,69,77,72,68,98,85,60,30.13,30.03,6,0,0,0.00
2012-8-5,89,77,71,77,74,71,99,89,64,30.13,30.01,6,1,0,0.19
2012-8-6,85,76,72,78,74,72,100,93,73,30.06,29.96,2,0,0,0.04
2012-8-7,91,79,72,78,74,72,100,86,55,29.99,29.90,3,0,0,0.09
2012-8-8,95,78,70,76,72,67,100,83,47,29.96,29.88,4,0,0,0.01
2012-8-9,96,78,64,77,70,64,100,81,45,29.94,29.78,4,0,0,0.00
2012-8-10,83,74,68,76,71,67,99,92,69,29.80,29.70,7,0,0,2.04
2012-8-11,85,74,68,73,69,65,100,88,55,29.89,29.77,4,0,0,0.03
2012-8-12,90,73,62,71,64,59,98,76,44,30.00,29.89,4,0,0,0.00
2012-8-13,89,72,58,71,65,58,99,80,49,30.04,29.91,4,0,0,0.00
2012-8-14,90,76,68,73,68,65,98,79,51,29.92,29.78,5,0,0,0.00
2012-8-15,87,70,64,74,67,63,99,88,60,29.94,29.83,9,0,0,0.09
2012-8-16,90,72,59,71,64,58,99,80,45,30.02,29.89,4,0,0,0.00
2012-8-17,90,72,59,73,66,58,99,82,49,29.94,29.76,5,0,0,0.00
2012-8-18,88,76,64,67,64,59,94,69,41,29.91,29.81,4,0,0,0.00
2012-8-19,70,65,61,68,64,60,99,96,90,29.96,29.86,1,0,0,0.37
2012-8-20,81,65,62,67,64,62,99,97,59,29.96,29.84,9,0,0,0.29
2012-8-21,83,68,58,70,63,58,100,86,48,30.08,29.96,5,0,0,0.00
2012-8-22,87,69,59,72,64,58,99,86,51,30.14,30.05,4,0,0,0.00
2012-8-23,89,72,62,72,66,61,100,84,47,30.16,30.08,4,0,0,0.00
2012-8-24,85,70,62,71,65,61,99,86,55,30.15,30.09,3,0,0,0.00
2012-8-25,71,66,65,68,65,64,99,96,84,30.16,30.10,3,0,0,1.27
2012-8-26,81,70,66,74,68,66,100,94,71,30.18,30.09,5,0,0,0.32
2012-8-27,88,73,64,75,69,64,100,88,58,30.15,29.96,3,0,0,0.00
2012-8-28,91,73,63,76,69,62,100,89,56,29.97,29.86,3,0,0,0.00
2012-8-29,89,72,60,72,66,60,100,83,53,30.01,29.91,4,0,0,0.00
2012-8-30,92,74,62,76,68,61,99,85,57,30.10,30.00,3,0,0,0.00
2012-8-31,99,77,63,78,70,63,100,83,44,30.13,30.00,5,0,0,0.00
2012-9-1,86,75,68,79,72,67,99,93,67,30.10,29.99,4,0,0,0.03
2012-9-2,85,75,70,78,73,70,100,94,74,30.01,29.93,3,0,0,0.43
2012-9-3,79,74,71,75,72,70,99,96,86,30.04,29.94,2,0,0,0.66
2012-9-4,82,74,69,77,73,69,100,96,81,30.00,29.85,7,1,0,0.96
2012-9-5,84,75,71,79,74,70,100,97,82,29.86,29.78,5,0,0,4.03
2012-9-6,86,74,68,76,72,68,100,94,67,29.94,29.80,5,0,0,0.45
2012-9-7,92,75,65,78,71,65,100,88,58,29.94,29.82,4,0,0,0.00
2012-9-8,82,71,65,75,67,58,100,89,63,29.85,29.59,10,1,13,0.18
2012-9-9,81,66,55,60,56,52,96,73,44,29.99,29.83,4,1,0,0.00
2012-9-10,78,61,50,58,53,48,100,78,37,30.20,29.99,5,0,0,0.00
2012-9-11,82,60,45,61,52,44,100,79,41,30.31,30.20,3,0,0,0.00
2012-9-12,86,63,47,63,56,46,100,82,43,30.35,30.27,3,0,0,0.00
2012-9-13,85,62,50,63,55,49,100,83,38,30.37,30.25,3,0,0,0.00
2012-9-14,59,51,49,58,50,48,99,97,94,30.28,30.24,0,0,0,0.00
2012-9-15,77,67,53,58,53,46,96,64,35,30.22,30.10,4,0,0,0.00
2012-9-16,72,60,50,60,55,49,98,86,61,30.17,30.07,5,0,0,0.00
2012-9-17,69,60,52,64,59,52,99,95,85,30.11,29.92,2,0,0,0.14
2012-9-18,72,68,64,71,67,61,100,99,87,29.92,29.60,12,2,15,1.47
2012-9-19,71,62,53,62,54,47,97,75,45,30.16,29.82,7,1,0,0.00
2012-9-20,73,56,48,62,54,48,99,92,62,30.18,30.03,5,0,0,0.00
2012-9-21,85,64,51,67,59,51,100,87,52,30.08,29.93,4,0,0,0.00
2012-9-22,82,69,61,68,62,50,98,79,47,29.94,29.79,7,1,12,0.00
2012-9-23,70,59,48,52,45,35,94,62,31,30.17,29.92,9,0,0,0.00
2012-9-24,72,54,41,52,45,39,99,76,33,30.24,30.12,5,0,0,0.00
2012-9-25,75,55,37,59,48,36,100,82,48,30.20,30.08,5,0,0,0.00
2012-9-26,84,67,52,67,61,51,99,82,51,30.14,30.06,6,0,0,0.00
2012-9-27,88,70,56,69,64,56,100,83,48,30.16,30.02,4,0,0,0.00
2012-9-28,74,68,62,70,66,62,100,96,82,30.04,29.93,2,0,0,0.22
2012-9-29,72,63,56,63,59,55,99,90,60,30.02,29.87,3,0,0,0.25
2012-9-30,74,59,49,57,53,49,99,83,43,29.94,29.79,5,0,0,0.00
2012-10-1,64,56,49,57,54,48,99,91,69,29.96,29.88,3,0,0,0.03
2012-10-2,67,62,57,66,62,56,100,99,97,29.94,29.86,1,0,0,0.81
2012-10-3,80,70,64,74,68,64,100,94,73,30.10,29.93,4,0,0,0.00
2012-10-4,81,68,55,70,63,54,100,84,51,30.16,30.09,5,0,0,0.03
2012-10-5,81,63,51,64,57,50,100,83,48,30.16,29.96,6,0,0,0.00
2012-10-6,78,63,52,65,54,41,100,76,51,30.02,29.84,8,1,0,0.00
2012-10-7,56,50,44,49,46,40,99,87,58,30.18,29.99,3,0,0,0.15
2012-10-8,51,45,38,46,42,38,100,91,68,30.28,30.18,3,0,0,0.14
2012-10-9,63,52,44,53,47,43,98,86,64,30.22,30.06,5,0,0,0.06
2012-10-10,70,57,47,54,49,41,100,76,45,30.10,29.90,7,0,0,0.00
2012-10-11,65,50,40,45,39,31,96,67,38,30.30,30.10,6,1,0,0.00
2012-10-12,71,52,37,50,42,36,99,73,35,30.41,30.15,6,1,0,0.00
2012-10-13,61,46,32,45,39,32,99,79,45,30.52,30.31,8,1,0,0.00
2012-10-14,74,60,40,59,52,39,99,76,54,30.31,29.93,11,3,0,0.00
2012-10-15,72,65,57,63,57,41,97,76,46,29.94,29.64,9,2,0,0.06
2012-10-16,69,54,42,48,44,41,97,70,37,29.93,29.81,5,0,0,0.00
2012-10-17,71,51,36,50,44,35,99,82,45,30.00,29.87,10,1,0,0.00
2012-10-18,66,56,43,60,52,42,99,89,74,29.92,29.76,8,1,0,0.86
2012-10-19,72,61,46,62,54,41,100,81,36,29.76,29.61,13,1,13,0.02
2012-10-20,66,52,41,48,42,38,99,74,40,29.94,29.67,7,1,0,0.00
2012-10-21,68,53,39,46,41,37,96,66,38,30.14,29.94,5,1,0,0.00
2012-10-22,74,51,33,51,43,32,99,78,39,30.24,30.10,5,0,0,0.00
2012-10-23,84,60,41,60,50,40,99,76,37,30.15,30.00,5,0,0,0.00
2012-10-24,84,63,48,61,53,47,98,75,34,30.13,30.02,4,0,0,0.00
2012-10-25,82,62,46,61,55,46,99,80,42,30.17,30.08,6,0,0,0.00
2012-10-26,66,62,58,60,59,56,97,89,78,30.16,30.01,4,0,0,0.00
2012-10-27,70,62,58,60,56,52,99,84,61,30.01,29.81,7,0,0,0.01
2012-10-28,64,58,51,54,51,48,94,79,67,29.82,29.61,8,2,0,0.06
2012-10-29,51,46,41,49,43,38,94,87,77,29.61,28.96,21,3,25,1.97
2012-10-30,45,42,38,40,36,32,90,79,67,29.46,28.95,22,3,25,0.17
2012-10-31,46,45,44,34,34,33,66,64,61,29.67,29.66,3,1,0,0.00
2012-11-1,54,47,36,38,35,31,84,63,50,29.78,29.66,7,1,0,0.00
2012-11-2,57,45,34,35,30,25,89,60,30,29.95,29.76,10,1,12,0.00
2012-11-3,54,43,32,35,32,29,92,65,45,30.11,29.95,8,1,0,0.00
2012-11-4,56,46,39,38,35,32,88,68,49,30.11,29.97,4,0,0,0.00
2012-11-5,51,38,28,34,29,26,94,72,42,30.17,30.04,6,1,0,0.00
2012-11-6,46,35,23,33,28,22,97,78,53,30.22,29.99,5,0,0,0.00
2012-11-7,46,42,36,33,30,28,87,64,53,29.99,29.87,8,2,0,0.00
2012-11-8,61,49,41,29,22,16,61,36,19,30.10,29.93,9,2,0,0.00
2012-11-10,70,52,28,41,36,26,97,62,29,30.36,30.24,3,0,0,0.00
2012-11-11,74,57,30,46,39,29,98,58,25,30.44,30.33,12,2,14,0.00
2012-11-12,67,60,50,61,56,44,96,85,74,30.39,30.07,13,3,16,0.34
2012-11-13,60,45,32,57,37,28,94,76,47,30.47,30.12,10,2,13,0.27
2012-11-14,47,35,24,33,28,23,96,77,54,30.56,30.42,9,0,0,0.00
2012-11-15,50,37,26,38,32,26,97,84,58,30.46,30.29,4,0,0,0.00
2012-11-16,55,40,28,37,32,27,98,77,41,30.45,30.29,6,0,0,0.00
2012-11-17,55,38,23,35,28,22,97,71,30,30.59,30.45,7,1,0,0.00
2012-11-18,55,46,32,40,36,28,91,71,52,30.58,30.46,8,1,0,0.00
2012-11-19,56,47,33,42,39,32,96,76,58,30.47,30.22,5,0,0,0.00
2012-11-20,56,40,29,42,36,29,98,85,57,30.22,30.06,2,0,0,0.00
2012-11-21,58,39,26,44,33,26,99,82,45,30.24,30.13,6,0,0,0.00
2012-11-22,62,39,24,44,29,23,97,75,29,30.28,30.17,4,0,0,0.00
2012-11-23,70,45,23,45,33,22,96,67,35,30.17,29.79,14,2,17,0.00
2012-11-24,48,38,31,29,21,18,62,50,36,30.09,29.86,9,2,15,0.00
2012-11-25,48,36,26,24,21,18,82,57,33,30.10,29.94,8,1,0,0.00
2012-11-26,62,46,28,36,29,23,82,55,29,30.18,30.00,6,1,0,0.00
2012-11-27,48,41,32,40,35,30,95,81,53,30.25,30.12,7,0,0,0.01
2012-11-28,51,38,26,36,28,21,97,72,34,30.40,30.24,9,1,0,0.00
2012-11-29,52,32,19,31,23,17,96,73,36,30.48,30.34,8,0,0,0.00
2012-11-30,54,34,21,36,26,19,94,75,34,30.37,30.28,2,0,0,0.00
2012-12-1,60,38,24,37,30,23,96,77,40,30.44,30.32,3,0,0,0.00
2012-12-2,38,29,27,36,28,26,96,95,92,30.40,30.33,2,0,0,0.00
2012-12-3,70,58,46,56,51,44,96,79,59,30.25,30.16,5,1,0,0.00
2012-12-4,74,55,38,56,47,37,99,77,46,30.24,30.04,10,2,0,0.00
2012-12-5,62,57,52,52,48,45,85,74,65,30.14,30.00,10,2,0,0.00
2012-12-6,47,39,25,33,29,23,94,69,50,30.38,30.21,6,0,0,0.00
2012-12-7,55,46,37,46,40,32,92,82,62,30.22,29.96,7,1,0,0.00
2012-12-8,69,54,42,54,49,41,99,85,58,29.99,29.86,9,1,0,0.00
2012-12-9,54,50,44,53,49,42,99,96,91,30.14,29.96,3,0,0,0.06
2012-12-10,63,58,50,59,56,49,100,92,83,29.96,29.58,10,2,15,0.00
2012-12-11,58,48,41,56,37,31,95,66,47,30.20,29.60,13,2,13,0.08
2012-12-12,46,40,36,32,30,28,82,67,50,30.41,30.20,5,0,0,0.00
2012-12-13,49,35,23,29,25,21,92,69,36,30.47,30.36,7,0,0,0.00
2012-12-14,60,31,18,33,22,16,95,76,24,30.37,30.22,4,0,0,0.00
2012-12-16,51,44,39,45,42,39,99,93,80,30.03,29.81,5,0,0,0.03
2012-12-17,53,47,40,50,45,39,99,95,85,29.85,29.55,3,0,0,0.04
2012-12-18,57,45,33,47,38,29,100,79,50,29.82,29.56,11,1,13,0.01
2012-12-19,63,49,30,37,34,27,93,57,34,30.15,29.79,14,2,23,0.00
2012-12-20,46,38,28,40,34,27,98,87,65,30.20,29.41,8,1,0,1.02
2012-12-21,41,37,34,40,25,20,98,62,51,29.65,29.37,19,3,20,0.01
2012-12-22,46,38,35,24,-17,-100,62,54,36,29.94,29.64,15,2,18,0.00
2012-12-23,51,40,21,29,-1,-100,94,67,34,30.08,29.92,8,1,0,0.00
2012-12-24,34,30,26,33,2,-100,98,94,84,30.09,29.90,2,0,0,0.19
2012-12-25,49,38,31,44,3,-100,100,93,76,30.22,29.90,5,0,0,0.06
2012-12-26,39,35,32,34,-1,-100,98,90,79,30.20,29.49,8,2,0,0.61
2012-12-27,43,37,33,34,-7,-100,94,73,54,30.07,29.48,13,1,18,0.20
2012-12-28,41,35,29,30,7,-100,92,74,58,30.17,30.00,6,1,0,0.03
2012-12-29,48,38,32,39,0,-100,97,78,55,30.02,29.58,10,1,15,0.08
2012-12-30,43,35,23,26,-4,-100,85,59,38,30.34,29.89,13,2,20,0.00
2012-12-31,42,32,22,30,0,-100,92,72,41,30.33,30.01,4,0,0,0.00
2013-1-1,50,41,33,39,-4,-100,84,73,63,30.03,29.88,4,1,0,0.00